Time;durP1;ratioP1;P1;durP2;ratioP2;P2;SDS_P1;SDS_P2;PMS_P1;PMS_P2;Temp;Humidity;BMP_temperature;BMP_pressure;BME280_temperature;BME280_humidity;BME280_pressure;Samples;Min_cycle;Max_cycle;Signal;HPM_P1;HPM_P2
2023/10/17 00:01:21;;;;;;;0.00;0.00;;;;;;;10.12;78.84;100331.94;4916987;29;20043;-75
2023/10/17 00:03:47;;;;;;;0.00;0.00;;;;;;;10.18;78.71;100333.59;4924409;29;20478;-75
2023/10/17 00:06:16;;;;;;;0.00;0.00;;;;;;;10.13;79.06;100339.03;4926273;29;20038;-74
2023/10/17 00:08:42;;;;;;;0.00;0.00;;;;;;;10.09;78.82;100337.91;4918680;28;20028;-74
2023/10/17 00:11:13;;;;;;;0.00;0.00;;;;;;;10.07;78.92;100342.84;4919512;29;20040;-74
2023/10/17 00:13:39;;;;;;;0.03;0.03;;;;;;;10.09;79.29;100340.66;4886053;29;20032;-74
2023/10/17 00:16:08;;;;;;;0.00;0.00;;;;;;;10.15;78.87;100347.81;4911742;29;20034;-74
2023/10/17 00:18:33;;;;;;;0.00;0.00;;;;;;;10.07;78.86;100329.16;4909499;29;20367;-75
2023/10/17 00:21:10;;;;;;;0.00;0.00;;;;;;;10.09;79.11;100336.03;4926444;29;20034;-75
2023/10/17 00:23:36;;;;;;;0.00;0.00;;;;;;;10.11;78.89;100335.75;4926381;29;20137;-74
2023/10/17 00:26:04;;;;;;;0.00;0.00;;;;;;;10.05;79.31;100331.34;4896704;29;20497;-74
2023/10/17 00:28:30;;;;;;;0.00;0.00;;;;;;;10.04;78.88;100326.97;4914221;29;20038;-74
2023/10/17 00:30:55;;;;;;;0.00;0.00;;;;;;;9.95;79.16;100318.44;4926366;29;20024;-74
2023/10/17 00:33:23;;;;;;;0.00;0.00;;;;;;;9.89;79.26;100322.25;4922211;29;20114;-74
2023/10/17 00:35:49;;;;;;;0.00;0.00;;;;;;;9.94;79.68;100323.09;4905625;29;20037;-75
2023/10/17 00:38:18;;;;;;;0.00;0.00;;;;;;;9.95;79.72;100319.25;4925649;29;20043;-74
2023/10/17 00:40:53;;;;;;;0.00;0.00;;;;;;;10.00;79.74;100321.19;4907279;29;20044;-75
2023/10/17 00:43:19;;;;;;;;;;;;;;;9.98;79.55;100309.72;4916117;29;20509;-74
2023/10/17 00:45:46;;;;;;;0.00;0.00;;;;;;;9.95;79.76;100311.06;4910737;29;19965;-75
2023/10/17 00:48:18;;;;;;;0.00;0.00;;;;;;;9.93;79.48;100306.97;4909328;29;20031;-75
2023/10/17 00:50:49;;;;;;;0.00;0.00;;;;;;;9.91;79.70;100304.47;4909649;29;20031;-75
2023/10/17 00:53:16;;;;;;;0.00;0.00;;;;;;;9.85;79.55;100294.63;4906907;29;20414;-74
2023/10/17 00:55:52;;;;;;;0.00;0.00;;;;;;;9.84;79.71;100309.38;4927750;29;20051;-74
2023/10/17 00:58:24;;;;;;;0.00;0.00;;;;;;;9.85;79.91;100302.81;4921698;29;20079;-74
2023/10/17 01:00:54;;;;;;;0.00;0.00;;;;;;;9.89;79.92;100314.88;4906464;29;20028;-75
2023/10/17 01:03:21;;;;;;;0.00;0.00;;;;;;;9.83;79.89;100313.19;4922226;29;20030;-75
2023/10/17 01:05:57;;;;;;;0.00;0.00;;;;;;;9.81;79.50;100326.28;4926554;29;20031;-76
2023/10/17 01:08:39;;;;;;;0.00;0.00;;;;;;;9.77;79.99;100325.19;4918535;29;20028;-75
2023/10/17 01:11:09;;;;;;;0.00;0.00;;;;;;;9.74;80.15;100309.31;4922529;29;20024;-75
2023/10/17 01:13:39;;;;;;;0.00;0.00;;;;;;;9.70;79.99;100308.19;4917329;29;20505;-75
2023/10/17 01:16:12;;;;;;;0.00;0.00;;;;;;;9.78;79.98;100315.88;4904298;29;20032;-75
2023/10/17 01:18:37;;;;;;;0.00;0.00;;;;;;;9.76;79.81;100312.59;4891491;29;20043;-75
2023/10/17 01:21:04;;;;;;;0.00;0.00;;;;;;;9.72;80.22;100316.94;4893451;29;20122;-75
2023/10/17 01:23:31;;;;;;;0.00;0.00;;;;;;;9.70;80.47;100319.13;4900764;29;20035;-74
2023/10/17 01:25:57;;;;;;;0.00;0.00;;;;;;;9.68;80.11;100304.91;4914571;29;20035;-75
2023/10/17 01:28:22;;;;;;;0.00;0.00;;;;;;;9.62;80.21;100306.75;4913306;29;20039;-75
2023/10/17 01:30:51;;;;;;;0.00;0.00;;;;;;;9.63;80.60;100313.88;4906538;29;20035;-73
2023/10/17 01:33:18;;;;;;;0.00;0.00;;;;;;;9.57;80.54;100310.28;4913898;29;20036;-74
2023/10/17 01:35:44;;;;;;;0.00;0.00;;;;;;;9.54;80.94;100316.28;4924394;29;20050;-73
2023/10/17 01:38:09;;;;;;;0.00;0.00;;;;;;;9.57;80.92;100309.47;4914336;29;20031;-74
2023/10/17 01:40:35;;;;;;;0.00;0.00;;;;;;;9.58;80.76;100311.13;4906272;29;20485;-75
2023/10/17 01:43:00;;;;;;;0.00;0.00;;;;;;;9.53;80.82;100309.16;4884884;29;20031;-76
2023/10/17 01:45:27;;;;;;;0.00;0.00;;;;;;;9.51;80.76;100316.00;4920939;29;20131;-74
2023/10/17 01:47:53;;;;;;;0.00;0.00;;;;;;;9.46;80.83;100313.19;4934115;29;20036;-75
2023/10/17 01:50:19;;;;;;;0.10;0.10;;;;;;;9.43;81.23;100309.09;4933411;29;20015;-75
2023/10/17 01:52:46;;;;;;;0.00;0.00;;;;;;;9.42;81.48;100310.19;4906444;29;20103;-74
2023/10/17 01:55:14;;;;;;;0.05;0.05;;;;;;;9.45;81.45;100296.00;4906465;29;20039;-74
2023/10/17 01:57:41;;;;;;;0.00;0.00;;;;;;;9.51;81.65;100294.16;4915969;29;20020;-74
2023/10/17 02:00:23;;;;;;;0.00;0.00;;;;;;;9.49;81.23;100291.69;4909844;29;20134;-74
2023/10/17 02:02:49;;;;;;;0.00;0.00;;;;;;;9.45;81.70;100287.81;4917938;29;20024;-74
2023/10/17 02:05:15;;;;;;;0.08;0.08;;;;;;;9.39;81.46;100286.16;4901984;29;20146;-75
2023/10/17 02:07:41;;;;;;;0.00;0.00;;;;;;;9.41;81.51;100289.44;4906161;29;20031;-74
2023/10/17 02:10:09;;;;;;;0.00;0.00;;;;;;;9.46;81.43;100280.44;4907637;29;20577;-74
2023/10/17 02:12:35;;;;;;;0.00;0.00;;;;;;;9.52;82.11;100280.25;4889730;29;20028;-74
2023/10/17 02:15:00;;;;;;;0.00;0.00;;;;;;;9.56;81.28;100273.16;4912607;29;20031;-74
2023/10/17 02:17:26;;;;;;;0.00;0.00;;;;;;;9.54;81.29;100272.59;4910468;29;20034;-75
2023/10/17 02:19:53;;;;;;;0.00;0.00;;;;;;;9.50;81.71;100259.75;4901200;29;20036;-74
2023/10/17 02:22:19;;;;;;;0.00;0.00;;;;;;;9.50;81.69;100266.00;4908567;29;20428;-75
2023/10/17 02:24:44;;;;;;;0.00;0.00;;;;;;;9.51;81.62;100264.94;4922856;29;20063;-75
2023/10/17 02:27:12;;;;;;;0.00;0.00;;;;;;;9.50;82.04;100251.56;4923722;29;20032;-75
2023/10/17 02:29:44;;;;;;;0.00;0.00;;;;;;;9.54;81.87;100250.75;4923949;29;20523;-75
2023/10/17 02:32:12;;;;;;;0.00;0.00;;;;;;;9.56;82.13;100239.56;4911451;29;20058;-74
2023/10/17 02:34:38;;;;;;;0.00;0.00;;;;;;;9.53;81.78;100234.66;4903814;29;20111;-75
2023/10/17 02:37:04;;;;;;;0.00;0.00;;;;;;;9.48;82.27;100227.25;4918216;29;20487;-75
2023/10/17 02:39:30;;;;;;;0.00;0.00;;;;;;;9.57;82.35;100238.50;4908145;29;20035;-75
2023/10/17 02:42:06;;;;;;;0.00;0.00;;;;;;;9.58;81.76;100235.50;4908317;29;20033;-75
2023/10/17 02:44:32;;;;;;;0.03;0.03;;;;;;;9.56;82.10;100226.75;4923040;29;20046;-75
2023/10/17 02:46:58;;;;;;;0.00;0.00;;;;;;;9.44;82.36;100223.41;4916217;29;20039;-75
2023/10/17 02:49:24;;;;;;;0.00;0.00;;;;;;;9.42;82.48;100226.38;4906799;29;20028;-75
2023/10/17 02:51:49;;;;;;;0.00;0.00;;;;;;;9.36;82.41;100211.06;4918938;29;20662;-75
2023/10/17 02:54:16;;;;;;;0.00;0.00;;;;;;;9.35;82.40;100220.34;4920391;29;20040;-76
2023/10/17 02:56:51;;;;;;;0.00;0.00;;;;;;;9.30;82.54;100216.75;4913557;29;20127;-75
2023/10/17 02:59:17;;;;;;;0.00;0.00;;;;;;;9.26;82.84;100209.09;4906625;29;20067;-76
2023/10/17 03:01:43;;;;;;;0.00;0.00;;;;;;;9.30;82.96;100222.22;4907170;29;20727;-75
2023/10/17 03:04:14;;;;;;;0.00;0.00;;;;;;;9.15;83.16;100204.63;4916215;29;20124;-76
2023/10/17 03:06:41;;;;;;;0.00;0.00;;;;;;;9.12;83.16;100210.63;4918912;29;20127;-75
2023/10/17 03:14:25;;;;;;;0.00;0.00;;;;;;;9.15;83.66;100201.91;4935075;28;20035;-75
2023/10/17 03:16:54;;;;;;;0.00;0.00;;;;;;;9.13;83.48;100206.81;4933897;28;20113;-76
2023/10/17 03:19:27;;;;;;;0.00;0.00;;;;;;;9.12;83.66;100210.63;4908307;28;20086;-75
2023/10/17 03:21:54;;;;;;;0.00;0.00;;;;;;;9.09;83.61;100194.78;4923304;28;20065;-76
2023/10/17 03:24:28;;;;;;;0.00;0.00;;;;;;;9.12;83.44;100196.97;4943869;28;20059;-74
2023/10/17 03:26:55;;;;;;;;;;;;;;;9.07;83.61;100186.88;4942142;28;20482;-75
2023/10/17 03:29:23;;;;;;;0.00;0.00;;;;;;;9.03;83.79;100179.47;4945142;28;19914;-75
2023/10/17 03:31:58;;;;;;;0.00;0.00;;;;;;;8.93;84.21;100176.66;4928268;28;20020;-75
2023/10/17 03:34:35;;;;;;;0.00;0.00;;;;;;;8.89;83.76;100179.91;4945769;28;20035;-75
2023/10/17 03:39:52;;;;;;;0.00;0.00;;;;;;;8.74;84.92;100172.41;4941189;28;20115;-74
2023/10/17 03:45:13;;;;;;;0.00;0.00;;;;;;;8.75;85.16;100184.16;4945252;28;20031;-74
2023/10/17 03:47:52;;;;;;;0.00;0.00;;;;;;;8.71;84.92;100180.31;4933728;29;20083;-74
2023/10/17 03:53:15;;;;;;;0.00;0.00;;;;;;;8.69;85.09;100175.13;4946119;28;20031;-74
2023/10/17 03:55:48;;;;;;;0.00;0.00;;;;;;;8.73;85.09;100176.25;4947903;28;20034;-74
2023/10/17 04:00:53;;;;;;;0.00;0.00;;;;;;;8.93;84.71;100180.22;4945991;28;20487;-74
2023/10/17 04:03:21;;;;;;;0.00;0.00;;;;;;;8.88;84.60;100172.00;4945441;28;20466;-74
2023/10/17 04:06:02;;;;;;;0.00;0.00;;;;;;;8.97;84.18;100191.44;4931715;28;20398;-74
2023/10/17 04:08:31;;;;;;;0.00;0.00;;;;;;;8.98;84.67;100184.88;4928600;28;20110;-74
2023/10/17 04:13:55;;;;;;;0.00;0.00;;;;;;;8.97;84.26;100185.97;4947435;28;20082;-75
2023/10/17 04:16:34;;;;;;;0.00;0.00;;;;;;;8.94;84.48;100191.97;4929899;28;20039;-75
2023/10/17 04:19:01;;;;;;;0.00;0.00;;;;;;;8.87;84.69;100187.53;4938354;28;20081;-75
2023/10/17 04:21:30;;;;;;;0.00;0.00;;;;;;;8.79;84.56;100179.84;4940624;28;20023;-75
2023/10/17 04:23:59;;;;;;;0.00;0.00;;;;;;;8.80;84.51;100186.91;4943644;28;20036;-75
2023/10/17 04:26:28;;;;;;;0.00;0.00;;;;;;;8.78;85.04;100175.47;4948274;28;20039;-76
2023/10/17 04:28:55;;;;;;;0.00;0.00;;;;;;;8.80;85.13;100189.66;4913573;29;20032;-75
2023/10/17 04:31:28;;;;;;;0.00;0.00;;;;;;;8.75;85.03;100184.16;4945692;28;20074;-75
2023/10/17 04:34:09;;;;;;;0.00;0.00;;;;;;;8.65;84.98;100173.19;4938924;28;20476;-74
2023/10/17 04:36:38;;;;;;;0.00;0.00;;;;;;;8.64;85.50;100185.16;4925970;28;20020;-76
2023/10/17 04:44:32;;;;;;;0.00;0.00;;;;;;;8.77;85.29;100170.28;4941567;28;20462;-75
2023/10/17 04:49:35;;;;;;;0.00;0.00;;;;;;;8.67;84.53;100177.28;4946811;28;20027;-75
2023/10/17 04:52:14;;;;;;;0.00;0.00;;;;;;;8.64;84.59;100174.25;4926769;28;21074;-74
2023/10/17 04:54:41;;;;;;;0.05;0.05;;;;;;;8.63;84.96;100176.16;4948708;28;20027;-75
2023/10/17 04:57:18;;;;;;;0.00;0.00;;;;;;;8.71;85.26;100177.59;4922264;29;20032;-75
2023/10/17 05:07:51;;;;;;;0.00;0.00;;;;;;;9.01;84.16;100154.34;4936771;28;20016;-75
2023/10/17 06:18:59;;;;;;;0.00;0.00;;;;;;;9.44;80.24;100114.22;4915806;29;20098;-76
2023/10/17 06:21:54;;;;;;;0.00;0.00;;;;;;;9.43;79.85;100124.34;4918607;29;20087;-74
2023/10/17 06:34:50;;;;;;;0.00;0.00;;;;;;;8.56;82.82;100094.59;4918134;29;20394;-75
2023/10/17 06:37:20;;;;;;;0.00;0.00;;;;;;;8.59;82.62;100119.69;4917059;29;20088;-74
2023/10/17 06:39:49;;;;;;;0.00;0.00;;;;;;;8.41;82.92;100097.19;4914539;29;20047;-74
2023/10/17 06:42:15;;;;;;;0.00;0.00;;;;;;;8.59;82.95;100133.34;4924871;29;20028;-75
2023/10/17 06:44:57;;;;;;;0.00;0.00;;;;;;;8.50;83.11;100128.34;4935097;29;20036;-73
2023/10/17 06:47:41;;;;;;;0.00;0.00;;;;;;;8.43;83.40;100119.53;4914014;29;20159;-73
2023/10/17 06:53:01;;;;;;;0.00;0.00;;;;;;;8.50;83.09;100133.78;4933136;28;20432;-75
2023/10/17 06:55:38;;;;;;;0.00;0.00;;;;;;;8.54;83.24;100125.91;4911914;29;20028;-76
2023/10/17 06:58:09;;;;;;;0.00;0.00;;;;;;;8.67;82.78;100149.19;4916252;29;20481;-77
2023/10/17 07:00:52;;;;;;;0.00;0.00;;;;;;;8.64;82.95;100145.06;4937777;28;20067;-77
2023/10/17 07:03:25;;;;;;;0.00;0.00;;;;;;;8.80;82.71;100162.38;4907228;29;20107;-74
2023/10/17 07:06:04;;;;;;;0.00;0.00;;;;;;;8.70;82.73;100141.31;4923932;29;20036;-77
2023/10/17 07:08:36;;;;;;;0.00;0.00;;;;;;;8.79;82.82;100147.13;4933117;28;20032;-76
2023/10/17 07:11:36;;;;;;;;;;;;;;;;;;;;;
2023/10/17 07:16:34;;;;;;;0.00;0.00;;;;;;;9.03;81.89;100149.47;4910417;29;20398;-75
2023/10/17 07:24:23;;;;;;;0.00;0.00;;;;;;;9.29;80.75;100163.25;4921253;29;20106;-75
2023/10/17 07:26:52;;;;;;;0.00;0.00;;;;;;;9.32;80.26;100151.84;4900014;29;20399;-74
2023/10/17 07:29:22;;;;;;;0.00;0.00;;;;;;;9.35;79.61;100151.31;4891947;29;20171;-74
2023/10/17 07:31:52;;;;;;;0.00;0.00;;;;;;;9.60;79.26;100184.16;4907540;29;20020;-74
2023/10/17 07:34:22;;;;;;;0.00;0.00;;;;;;;9.66;78.70;100186.94;4918016;29;20613;-75
2023/10/17 07:36:58;;;;;;;0.00;0.00;;;;;;;9.69;78.53;100175.50;4899038;29;20032;-75
2023/10/17 07:39:36;;;;;;;0.00;0.00;;;;;;;9.81;78.40;100167.88;4914846;29;20032;-75
2023/10/17 07:42:03;;;;;;;0.00;0.00;;;;;;;9.91;77.70;100167.09;4901237;29;20043;-75
2023/10/17 07:44:34;;;;;;;0.00;0.00;;;;;;;9.90;77.60;100160.84;4919676;29;20028;-74
2023/10/17 07:49:35;;;;;;;0.00;0.00;;;;;;;10.13;76.75;100181.41;4907006;29;20024;-75
2023/10/17 07:52:11;;;;;;;0.00;0.00;;;;;;;10.10;76.27;100160.09;4916077;29;20070;-73
2023/10/17 07:57:36;;;;;;;0.00;0.00;;;;;;;10.40;75.59;100179.56;4894422;29;20059;-75
2023/10/17 08:00:24;;;;;;;0.00;0.00;;;;;;;10.48;74.69;100170.81;4904124;29;20055;-75
2023/10/17 08:02:51;;;;;;;0.00;0.00;;;;;;;10.57;74.02;100157.44;4918132;29;20444;-74
2023/10/17 08:05:23;;;;;;;0.00;0.00;;;;;;;11.00;73.76;100188.88;4923869;29;20036;-75
2023/10/17 08:08:01;;;;;;;0.00;0.00;;;;;;;11.65;74.14;100155.38;4889439;29;20553;-75
2023/10/17 08:10:32;;;;;;;0.00;0.00;;;;;;;13.71;68.27;100164.78;4924499;28;20075;-74
2023/10/17 08:13:07;;;;;;;0.00;0.00;;;;;;;16.33;60.67;100166.91;4919713;28;20406;-73
2023/10/17 08:18:22;;;;;;;0.00;0.00;;;;;;;21.17;45.29;100151.19;4933675;28;20481;-74
2023/10/17 08:23:34;;;;;;;0.00;0.00;;;;;;;23.73;35.68;100153.94;4943267;28;20047;-75
2023/10/17 08:26:00;;;;;;;0.00;0.00;;;;;;;24.78;35.55;100168.25;4945380;28;20030;-74
2023/10/17 08:31:23;;;;;;;0.00;0.00;;;;;;;26.41;31.72;100171.75;4946882;28;20042;-76
2023/10/17 08:36:53;;;;;;;0.00;0.00;;;;;;;22.88;33.81;100161.66;4938536;28;20082;-75
2023/10/17 08:42:14;;;;;;;0.00;0.00;;;;;;;18.42;40.92;100171.84;4939155;28;20032;-75
2023/10/17 08:44:46;;;;;;;0.00;0.00;;;;;;;17.07;44.25;100160.97;4945005;28;20027;-75
2023/10/17 08:47:16;;;;;;;0.00;0.00;;;;;;;16.20;45.99;100158.34;4942606;28;20078;-76
2023/10/17 08:49:44;;;;;;;0.00;0.00;;;;;;;15.61;47.58;100124.28;4933268;28;20114;-74
2023/10/17 08:52:23;;;;;;;0.00;0.00;;;;;;;15.52;47.92;100138.81;4944155;29;20084;-74
2023/10/17 08:54:56;;;;;;;0.00;0.00;;;;;;;15.48;48.31;100137.78;4935599;28;20150;-75
2023/10/17 08:57:22;;;;;;;0.00;0.00;;;;;;;15.43;48.67;100113.06;4943962;28;20386;-74
2023/10/17 09:00:13;;;;;;;0.00;0.00;;;;;;;15.83;48.44;100135.44;4944209;28;20023;-75
2023/10/17 09:02:35;;;;;;;0.00;0.00;;;;;;;16.06;48.24;100129.97;4941148;28;20078;-75
2023/10/17 09:05:26;;;;;;;0.00;0.00;;;;;;;16.44;47.63;100118.63;4921897;28;20093;-74
2023/10/17 09:07:58;;;;;;;0.00;0.00;;;;;;;16.73;46.42;100114.59;4938173;28;20477;-75
2023/10/17 09:10:35;;;;;;;0.00;0.00;;;;;;;16.81;45.92;100144.22;4931553;28;20091;-75
2023/10/17 09:15:59;;;;;;;0.00;0.00;;;;;;;19.38;42.05;100132.06;4911009;29;20047;-75
2023/10/17 09:18:29;;;;;;;0.00;0.00;;;;;;;21.64;37.87;100120.19;4920852;29;21066;-75
2023/10/17 09:20:55;;;;;;;0.00;0.00;;;;;;;24.61;33.28;100143.53;4946554;28;20046;-75
2023/10/17 09:23:32;;;;;;;0.00;0.00;;;;;;;27.12;28.51;100123.31;4919689;29;20023;-75
2023/10/17 09:26:07;;;;;;;0.00;0.00;;;;;;;28.40;26.80;100130.22;4923751;29;20036;-75
2023/10/17 09:28:37;;;;;;;0.00;0.00;;;;;;;28.97;25.51;100115.56;4930657;29;20106;-75
2023/10/17 09:31:09;;;;;;;0.00;0.00;;;;;;;29.85;24.85;100106.75;4927865;29;20022;-74
2023/10/17 09:33:48;;;;;;;0.00;0.00;;;;;;;30.77;22.92;100101.16;4921490;29;20032;-74
2023/10/17 09:36:17;;;;;;;0.00;0.00;;;;;;;31.35;22.85;100111.25;4919053;29;20467;-74
2023/10/17 09:38:43;;;;;;;0.00;0.00;;;;;;;31.95;21.46;100086.44;4919774;29;20565;-76
2023/10/17 09:41:19;;;;;;;0.00;0.00;;;;;;;32.58;21.18;100124.91;4919375;29;20087;-74
2023/10/17 09:43:49;;;;;;;0.00;0.00;;;;;;;32.76;20.87;100108.50;4910682;29;20035;-75
2023/10/17 09:46:23;;;;;;;0.00;0.00;;;;;;;32.81;19.21;100119.38;4918402;29;20038;-74
2023/10/17 09:48:51;;;;;;;0.00;0.00;;;;;;;32.24;19.82;100103.13;4912258;29;20028;-74
2023/10/17 09:51:29;;;;;;;0.00;0.00;;;;;;;32.25;19.47;100118.88;4918745;29;20032;-74
2023/10/17 09:53:58;;;;;;;0.00;0.00;;;;;;;32.99;19.98;100099.28;4907565;29;20035;-75
2023/10/17 09:56:31;;;;;;;0.00;0.00;;;;;;;33.74;19.21;100085.09;4920469;28;20490;-75
2023/10/17 09:59:05;;;;;;;0.00;0.00;;;;;;;34.07;18.25;100093.78;4933262;28;20372;-74
2023/10/17 10:01:31;;;;;;;0.00;0.00;;;;;;;34.52;17.33;100090.41;4920989;29;20039;-74
2023/10/17 10:04:01;;;;;;;0.00;0.00;;;;;;;35.35;17.18;100093.38;4913266;29;20763;-75
2023/10/17 10:06:39;;;;;;;0.00;0.00;;;;;;;36.38;16.39;100096.69;4934627;28;20020;-75
2023/10/17 10:09:13;;;;;;;0.00;0.00;;;;;;;36.54;15.65;100065.25;4908959;29;20410;-78
2023/10/17 10:11:48;;;;;;;0.00;0.00;;;;;;;36.51;15.48;100089.75;4904572;29;20646;-75
2023/10/17 10:14:14;;;;;;;0.00;0.00;;;;;;;36.46;15.18;100089.50;4918487;29;20027;-75
2023/10/17 10:16:51;;;;;;;0.00;0.00;;;;;;;36.00;15.55;100076.16;4922765;29;20026;-76
2023/10/17 10:19:17;;;;;;;0.00;0.00;;;;;;;36.71;14.95;100071.63;4907989;29;20023;-75
2023/10/17 10:22:03;;;;;;;0.00;0.00;;;;;;;36.58;15.06;100079.38;4911814;29;20379;-75
2023/10/17 10:24:39;;;;;;;0.00;0.00;;;;;;;37.08;14.49;100074.13;4918979;29;20040;-75
2023/10/17 10:27:10;;;;;;;0.00;0.00;;;;;;;37.21;14.54;100097.72;4918867;29;20060;-75
2023/10/17 10:29:37;;;;;;;0.00;0.00;;;;;;;37.43;13.99;100062.78;4920991;29;20028;-75
2023/10/17 10:32:06;;;;;;;0.00;0.00;;;;;;;37.58;14.51;100069.59;4920309;29;20035;-75
2023/10/17 10:34:35;;;;;;;0.00;0.00;;;;;;;38.27;13.71;100085.03;4919459;29;20047;-75
2023/10/17 10:37:07;;;;;;;0.00;0.00;;;;;;;38.58;13.44;100076.50;4908472;29;20095;-75
2023/10/17 10:39:45;;;;;;;0.00;0.00;;;;;;;38.79;13.12;100067.56;4902123;29;20016;-75
2023/10/17 10:42:12;;;;;;;0.00;0.00;;;;;;;39.22;13.52;100055.13;4906826;29;20047;-76
2023/10/17 10:44:41;;;;;;;0.00;0.00;;;;;;;40.56;12.77;100072.88;4911299;29;20027;-76
2023/10/17 10:47:07;;;;;;;0.00;0.00;;;;;;;40.87;11.95;100051.69;4918783;29;20120;-77
2023/10/17 10:49:36;;;;;;;0.00;0.00;;;;;;;40.18;12.01;100053.41;4907341;29;20123;-76
2023/10/17 10:52:10;;;;;;;0.00;0.00;;;;;;;40.11;12.25;100038.13;4907980;29;20031;-76
2023/10/17 10:54:54;;;;;;;0.00;0.00;;;;;;;40.95;12.43;100057.91;4922387;29;20031;-75
2023/10/17 10:57:34;;;;;;;0.00;0.00;;;;;;;42.32;11.82;100033.47;4915108;29;20574;-76
2023/10/17 11:00:00;;;;;;;0.00;0.00;;;;;;;42.95;11.17;100035.22;4914713;29;20071;-76
2023/10/17 11:02:36;;;;;;;0.00;0.00;;;;;;;41.92;10.42;100046.34;4909056;29;20024;-76
2023/10/17 11:05:05;;;;;;;0.00;0.00;;;;;;;40.94;10.71;100019.06;4918172;29;20048;-74
2023/10/17 11:07:33;;;;;;;0.00;0.00;;;;;;;40.08;11.33;100026.88;4910925;29;20032;-75
2023/10/17 11:10:14;;;;;;;0.00;0.00;;;;;;;40.32;11.52;100041.28;4921633;28;20493;-77
2023/10/17 11:12:54;;;;;;;0.00;0.00;;;;;;;40.52;11.13;100037.06;4916647;29;20079;-76
2023/10/17 11:15:26;;;;;;;0.00;0.00;;;;;;;41.12;11.63;100024.66;4914617;29;20055;-75
2023/10/17 11:17:59;;;;;;;0.00;0.00;;;;;;;41.22;10.89;100025.38;4927434;29;20478;-74
2023/10/17 11:20:25;;;;;;;0.00;0.00;;;;;;;40.71;11.48;100020.59;4921755;29;20036;-75
2023/10/17 11:22:50;;;;;;;0.00;0.00;;;;;;;40.37;11.48;100009.09;4916004;29;20023;-75
2023/10/17 11:25:26;;;;;;;0.00;0.00;;;;;;;41.18;11.18;99996.09;4915814;29;20390;-74
2023/10/17 11:27:55;;;;;;;0.00;0.00;;;;;;;42.11;10.85;100001.78;4912120;29;20024;-74
2023/10/17 11:30:32;;;;;;;0.00;0.00;;;;;;;42.12;10.58;100002.59;4921692;28;20028;-75
2023/10/17 11:33:11;;;;;;;0.00;0.00;;;;;;;42.44;10.25;99994.22;4913904;29;20623;-74
2023/10/17 11:36:13;;;;;;;0.00;0.00;;;;;;;41.32;10.56;99985.94;4919955;29;20040;-73
2023/10/17 11:38:40;;;;;;;0.00;0.00;;;;;;;40.93;10.64;99981.00;4932595;28;20056;-75
2023/10/17 11:41:19;;;;;;;0.00;0.00;;;;;;;40.40;11.07;99962.31;4940115;28;20054;-75
2023/10/17 11:43:56;;;;;;;0.00;0.00;;;;;;;41.21;10.77;99982.84;4922147;29;20032;-74
2023/10/17 11:46:31;;;;;;;0.00;0.00;;;;;;;40.20;11.46;99985.78;4924692;29;20024;-75
2023/10/17 11:49:31;;;;;;;0.00;0.00;;;;;;;40.00;11.19;99982.63;4923339;29;20098;-76
2023/10/17 11:52:09;;;;;;;0.00;0.00;;;;;;;40.86;11.20;99969.06;4921763;29;20032;-75
2023/10/17 11:54:53;;;;;;;0.00;0.00;;;;;;;42.24;10.52;99951.91;4922247;29;20602;-75
2023/10/17 11:57:22;;;;;;;0.00;0.00;;;;;;;42.56;10.48;99950.78;4921136;29;20671;-74
2023/10/17 12:00:06;;;;;;;0.00;0.00;;;;;;;42.48;10.23;99966.91;4930662;29;20055;-76
2023/10/17 12:02:32;;;;;;;0.00;0.00;;;;;;;41.35;10.75;99953.44;4931836;29;20020;-75
2023/10/17 12:05:03;;;;;;;0.00;0.00;;;;;;;40.79;11.17;99939.50;4926590;29;20040;-75
2023/10/17 12:08:11;;;;;;;0.00;0.00;;;;;;;39.91;11.60;99931.94;4919299;29;20908;-74
2023/10/17 12:10:17;;;;;;;0.00;0.00;;;;;;;39.13;11.85;99934.28;4921053;29;20044;-75
2023/10/17 12:12:43;;;;;;;0.00;0.00;;;;;;;38.71;12.20;99947.88;4927627;29;20047;-76
2023/10/17 12:15:14;;;;;;;0.00;0.00;;;;;;;38.52;12.38;99923.34;4921661;29;20119;-74
2023/10/17 12:17:42;;;;;;;0.00;0.00;;;;;;;39.70;11.51;99928.81;4915547;29;20095;-74
2023/10/17 12:20:25;;;;;;;0.00;0.00;;;;;;;39.92;11.08;99927.81;4913578;29;20111;-74
2023/10/17 12:23:08;;;;;;;0.00;0.00;;;;;;;39.32;11.58;99933.00;4936554;29;20032;-75
2023/10/17 12:25:34;;;;;;;0.00;0.00;;;;;;;38.86;11.99;99919.47;4928695;29;20039;-75
2023/10/17 12:28:02;;;;;;;0.00;0.00;;;;;;;39.05;11.71;99908.84;4932974;29;20059;-75
2023/10/17 12:30:35;;;;;;;0.00;0.00;;;;;;;38.42;12.11;99905.38;4924086;29;20036;-74
2023/10/17 12:33:08;;;;;;;0.00;0.00;;;;;;;39.60;11.72;99898.66;4934219;28;20036;-74
2023/10/17 12:35:34;;;;;;;0.00;0.00;;;;;;;40.89;11.28;99917.34;4923397;29;20123;-75
2023/10/17 12:38:06;;;;;;;0.00;0.00;;;;;;;41.68;10.52;99895.88;4929753;28;20050;-72
2023/10/17 12:40:41;;;;;;;0.00;0.00;;;;;;;42.19;10.85;99888.13;4939593;28;20127;-74
2023/10/17 12:43:16;;;;;;;0.00;0.00;;;;;;;42.75;10.09;99884.47;4923614;29;20115;-74
2023/10/17 12:45:42;;;;;;;0.00;0.00;;;;;;;42.87;10.01;99868.91;4916690;29;20530;-75
2023/10/17 12:48:11;;;;;;;0.00;0.00;;;;;;;43.21;9.55;99882.88;4938033;28;20136;-74
2023/10/17 12:50:43;;;;;;;0.00;0.00;;;;;;;43.13;9.61;99859.56;4942534;29;20032;-75
2023/10/17 12:53:10;;;;;;;0.00;0.00;;;;;;;42.29;9.98;99865.00;4922113;29;20486;-74
2023/10/17 12:55:37;;;;;;;0.00;0.00;;;;;;;39.84;11.10;99863.59;4941671;28;20059;-75
2023/10/17 12:58:02;;;;;;;0.00;0.00;;;;;;;37.71;12.22;99844.22;4932757;28;20489;-75
2023/10/17 13:00:30;;;;;;;0.00;0.00;;;;;;;37.46;12.82;99850.91;4926851;29;20027;-75
2023/10/17 13:03:03;;;;;;;0.00;0.00;;;;;;;36.96;13.16;99837.25;4924911;29;20170;-75
2023/10/17 13:05:28;;;;;;;0.00;0.00;;;;;;;37.63;12.34;99849.41;4932948;28;20070;-75
2023/10/17 13:08:14;;;;;;;0.00;0.00;;;;;;;38.80;12.21;99855.69;4914239;29;20060;-76
2023/10/17 13:10:40;;;;;;;0.00;0.00;;;;;;;40.11;11.45;99843.47;4905997;29;20055;-75
2023/10/17 13:13:08;;;;;;;0.00;0.00;;;;;;;41.71;10.83;99842.47;4916087;29;20036;-75
2023/10/17 13:15:35;;;;;;;0.00;0.00;;;;;;;41.94;10.21;99849.38;4930584;28;20028;-75
2023/10/17 13:18:10;;;;;;;0.00;0.00;;;;;;;41.29;10.98;99849.28;4913702;29;20020;-74
2023/10/17 13:20:36;;;;;;;0.00;0.00;;;;;;;41.05;10.41;99832.97;4940587;28;20055;-75
2023/10/17 13:23:05;;;;;;;0.00;0.00;;;;;;;41.42;10.95;99829.72;4926257;29;20505;-74
2023/10/17 13:25:38;;;;;;;0.00;0.00;;;;;;;42.08;10.54;99826.84;4925211;29;20090;-75
2023/10/17 13:28:04;;;;;;;;;;;;;;;41.51;10.37;99825.97;4937212;28;20070;-75
2023/10/17 13:30:31;;;;;;;0.00;0.00;;;;;;;39.50;11.51;99828.44;4915479;29;20005;-75
2023/10/17 13:32:57;;;;;;;0.00;0.00;;;;;;;36.39;13.19;99819.31;4929885;28;20104;-75
2023/10/17 13:35:23;;;;;;;0.00;0.00;;;;;;;32.48;15.12;99790.75;4920173;29;20031;-75
2023/10/17 13:37:55;;;;;;;0.00;0.00;;;;;;;29.74;17.66;99808.06;4913961;29;20031;-75
2023/10/17 13:40:23;;;;;;;0.00;0.00;;;;;;;27.17;19.20;99798.25;4924011;29;20028;-75
2023/10/17 13:42:55;;;;;;;0.00;0.00;;;;;;;25.41;21.56;99788.44;4932437;29;20174;-76
2023/10/17 13:45:24;;;;;;;0.00;0.00;;;;;;;24.41;23.11;99794.22;4928506;29;20095;-75
2023/10/17 13:47:51;;;;;;;0.00;0.00;;;;;;;23.94;24.15;99789.88;4911761;29;20047;-75
2023/10/17 13:50:18;;;;;;;0.00;0.00;;;;;;;23.84;23.77;99791.25;4922868;29;20638;-74
2023/10/17 13:52:46;;;;;;;0.00;0.00;;;;;;;23.98;23.77;99791.53;4923841;29;20027;-75
2023/10/17 13:55:14;;;;;;;0.00;0.00;;;;;;;24.36;23.95;99800.94;4933708;29;20526;-75
2023/10/17 13:57:46;;;;;;;0.00;0.00;;;;;;;25.41;22.97;99797.63;4936210;29;20023;-76
2023/10/17 14:00:19;;;;;;;0.00;0.00;;;;;;;26.74;22.13;99794.41;4920683;29;21485;-75
2023/10/17 14:02:47;;;;;;;0.00;0.00;;;;;;;27.27;21.42;99790.25;4926867;29;20502;-75
2023/10/17 14:05:13;;;;;;;0.00;0.00;;;;;;;26.93;21.40;99782.88;4926033;28;20035;-75
2023/10/17 14:07:39;;;;;;;0.00;0.00;;;;;;;26.24;21.76;99767.63;4921928;29;20035;-75
2023/10/17 14:10:09;;;;;;;0.00;0.00;;;;;;;25.73;22.47;99777.56;4922846;29;20374;-75
2023/10/17 14:12:39;;;;;;;0.00;0.00;;;;;;;25.62;22.94;99757.03;4940769;28;20066;-75
2023/10/17 14:15:08;;;;;;;0.00;0.00;;;;;;;25.47;23.32;99778.50;4935845;29;20030;-77
2023/10/17 14:17:33;;;;;;;0.00;0.00;;;;;;;25.02;23.41;99783.13;4936894;28;20024;-75